createdAt,value
2018-12-23T00:02:34.019Z,102607.54
2018-12-23T00:05:37.526Z,102606.49
2018-12-23T00:08:41.022Z,102617.65
2018-12-23T00:11:44.620Z,102618.98
2018-12-23T00:14:48.131Z,102619.27
2018-12-23T00:17:51.635Z,102616.98
2018-12-23T00:20:55.105Z,102631.45
2018-12-23T00:23:58.634Z,102634.21
2018-12-23T00:27:02.214Z,102637.99
2018-12-23T00:30:07.125Z,102621.77
2018-12-23T00:33:13.553Z,102621.32
2018-12-23T00:36:17.844Z,102612.59
2018-12-23T00:39:26.306Z,102613.54
2018-12-23T00:42:30.337Z,102618.41
2018-12-23T00:45:35.312Z,102633.74
2018-12-23T00:48:39.899Z,102634.56
2018-12-23T00:51:44.499Z,102632.18
2018-12-23T00:54:48.319Z,102627.94
2018-12-23T00:57:55.750Z,102627.66
2018-12-23T01:01:06.352Z,102633.60
2018-12-23T01:04:10.483Z,102642.93
2018-12-23T01:07:17.792Z,102650.31
2018-12-23T01:10:21.480Z,102636.52
2018-12-23T01:13:25.168Z,102639.38
2018-12-23T01:16:28.529Z,102635.26
2018-12-23T01:19:32.691Z,102631.93
2018-12-23T01:22:37.196Z,102643.43
2018-12-23T01:25:44.912Z,102651.60
2018-12-23T01:28:51.196Z,102649.38
2018-12-23T01:31:54.809Z,102654.43
2018-12-23T01:34:59.396Z,102652.29
2018-12-23T01:38:03.873Z,102656.21
2018-12-23T01:41:08.176Z,102657.93
2018-12-23T01:44:11.987Z,102649.41
2018-12-23T01:47:16.521Z,102647.60
2018-12-23T01:50:20.931Z,102646.76
2018-12-23T01:53:25.045Z,102644.64
2018-12-23T01:56:28.666Z,102640.47
2018-12-23T01:59:32.210Z,102633.43
2018-12-23T02:02:37.568Z,102622.05
2018-12-23T02:05:46.097Z,102632.53
2018-12-23T02:08:49.610Z,102645.66
2018-12-23T02:11:53.240Z,102644.43
2018-12-23T02:14:56.847Z,102644.91
2018-12-23T02:18:01.172Z,102648.66
2018-12-23T02:21:04.773Z,102645.51
2018-12-23T02:24:08.997Z,102649.02
2018-12-23T02:27:14.404Z,102643.69
2018-12-23T02:30:19.080Z,102658.35
2018-12-23T02:33:22.737Z,102660.56
2018-12-23T02:36:26.337Z,102665.35
2018-12-23T02:39:30.004Z,102664.12
2018-12-23T02:42:33.643Z,102671.84
2018-12-23T02:45:37.206Z,102666.34
2018-12-23T02:48:40.810Z,102665.38
2018-12-23T02:51:47.935Z,102664.58
2018-12-23T02:54:51.437Z,102665.77
2018-12-23T02:57:55.005Z,102663.77
2018-12-23T03:00:59.630Z,102657.33
2018-12-23T03:04:03.244Z,102657.22
2018-12-23T03:07:07.232Z,102649.87
2018-12-23T03:10:10.863Z,102655.64
2018-12-23T03:13:14.467Z,102662.71
2018-12-23T03:16:18.101Z,102655.61
2018-12-23T03:19:21.677Z,102659.25
2018-12-23T03:22:27.394Z,102662.52
2018-12-23T03:25:30.971Z,102658.47
2018-12-23T03:28:34.618Z,102657.08
2018-12-23T03:31:38.260Z,102661.84
2018-12-23T03:34:42.877Z,102667.29
2018-12-23T03:37:47.442Z,102660.56
2018-12-23T03:40:51.063Z,102659.43
2018-12-23T03:43:54.679Z,102663.84
2018-12-23T03:46:58.337Z,102665.54
2018-12-23T03:50:01.864Z,102666.44
2018-12-23T03:53:07.417Z,102666.19
2018-12-23T03:56:11.075Z,102669.61
2018-12-23T03:59:14.693Z,102666.12
2018-12-23T04:02:18.270Z,102667.32
2018-12-23T04:05:21.805Z,102667.93
2018-12-23T04:08:25.406Z,102668.12
2018-12-23T04:11:29.012Z,102674.78
2018-12-23T04:14:33.602Z,102672.50
2018-12-23T04:17:37.336Z,102672.12
2018-12-23T04:20:40.955Z,102670.84
2018-12-23T04:23:44.560Z,102668.66
2018-12-23T04:26:48.167Z,102666.57
2018-12-23T04:29:51.769Z,102668.90
2018-12-23T04:32:55.394Z,102670.57
2018-12-23T04:35:58.981Z,102673.01
2018-12-23T04:39:02.675Z,102669.74
2018-12-23T04:42:06.311Z,102674.45
2018-12-23T04:45:09.872Z,102669.02
2018-12-23T04:48:18.010Z,102668.35
2018-12-23T04:51:21.617Z,102670.90
2018-12-23T04:54:25.241Z,102667.71
2018-12-23T04:57:28.845Z,102654.58
2018-12-23T05:00:32.388Z,102657.66
2018-12-23T05:03:42.627Z,102662.14
2018-12-23T05:06:43.476Z,102665.25
2018-12-23T05:09:43.455Z,102669.33
2018-12-23T05:12:47.169Z,102666.10
2018-12-23T05:15:50.770Z,102667.27
2018-12-23T05:18:54.516Z,102662.66
2018-12-23T05:21:58.227Z,102674.10
2018-12-23T05:25:01.749Z,102675.01
2018-12-23T05:28:05.301Z,102663.69
2018-12-23T05:31:08.842Z,102657.80
2018-12-23T05:34:12.276Z,102656.50
2018-12-23T05:37:15.850Z,102649.76
2018-12-23T05:40:19.548Z,102655.84
2018-12-23T05:43:23.090Z,102663.27
2018-12-23T05:46:26.788Z,102674.13
2018-12-23T05:49:30.400Z,102674.35
2018-12-23T05:52:34.022Z,102667.10
2018-12-23T05:55:36.354Z,102653.11
2018-12-23T05:58:40.221Z,102648.94
2018-12-23T06:01:43.866Z,102654.94
2018-12-23T06:04:47.410Z,102654.85
2018-12-23T06:07:51.280Z,102661.91
2018-12-23T06:10:54.825Z,102660.58
2018-12-23T06:13:58.457Z,102660.94
2018-12-23T06:17:02.051Z,102669.13
2018-12-23T06:20:05.677Z,102675.92
2018-12-23T06:23:09.246Z,102675.88
2018-12-23T06:26:12.873Z,102675.24
2018-12-23T06:29:16.380Z,102682.56
2018-12-23T06:32:19.963Z,102687.05
2018-12-23T06:35:23.693Z,102687.36
2018-12-23T06:38:27.330Z,102694.07
2018-12-23T06:41:30.995Z,102691.58
2018-12-23T06:44:34.511Z,102700.79
2018-12-23T06:47:38.102Z,102699.58
2018-12-23T06:50:41.741Z,102701.57
2018-12-23T06:53:45.376Z,102706.52
2018-12-23T06:56:48.930Z,102706.09
2018-12-23T06:59:52.498Z,102715.98
2018-12-23T07:02:56.122Z,102713.16
2018-12-23T07:05:59.751Z,102713.08
2018-12-23T07:09:04.007Z,102710.35
2018-12-23T07:12:07.473Z,102702.05
2018-12-23T07:15:11.076Z,102704.33
2018-12-23T07:18:14.659Z,102703.54
2018-12-23T07:21:18.287Z,102702.04
2018-12-23T07:24:21.791Z,102701.00
2018-12-23T07:27:25.387Z,102699.38
2018-12-23T07:30:29.004Z,102694.86
2018-12-23T07:33:33.197Z,102703.76
2018-12-23T07:36:36.885Z,102696.71
2018-12-23T07:39:40.436Z,102695.97
2018-12-23T07:42:43.966Z,102693.19
2018-12-23T07:45:48.248Z,102690.53
2018-12-23T07:48:51.851Z,102698.02
2018-12-23T07:51:55.433Z,102697.02
2018-12-23T07:54:58.975Z,102691.50
2018-12-23T07:58:02.556Z,102694.78
2018-12-23T08:01:06.069Z,102698.09
2018-12-23T08:04:10.058Z,102698.88
2018-12-23T08:07:13.680Z,102700.65
2018-12-23T08:10:17.260Z,102707.11
2018-12-23T08:13:20.795Z,102710.49
2018-12-23T08:16:24.366Z,102707.78
2018-12-23T08:19:27.987Z,102713.33
2018-12-23T08:22:31.580Z,102698.24
2018-12-23T08:25:35.786Z,102696.49
2018-12-23T08:28:38.879Z,102697.21
2018-12-23T08:31:42.474Z,102700.82
2018-12-23T08:34:45.918Z,102695.52
2018-12-23T08:37:49.531Z,102700.65
2018-12-23T08:40:53.132Z,102695.29
2018-12-23T08:43:56.737Z,102695.91
2018-12-23T08:47:00.460Z,102700.29
2018-12-23T08:50:04.537Z,102699.67
2018-12-23T08:53:10.310Z,102694.20
2018-12-23T08:56:13.993Z,102697.82
2018-12-23T08:59:17.600Z,102692.70
2018-12-23T09:02:21.019Z,102692.22
2018-12-23T09:05:24.734Z,102690.29
2018-12-23T09:08:28.384Z,102692.86
2018-12-23T09:11:31.813Z,102684.77
2018-12-23T09:14:35.333Z,102680.44
2018-12-23T09:17:39.029Z,102684.46
2018-12-23T09:20:42.678Z,102676.31
2018-12-23T09:23:46.289Z,102676.09
2018-12-23T09:26:50.890Z,102666.82
2018-12-23T09:29:54.449Z,102666.72
2018-12-23T09:32:57.924Z,102662.00
2018-12-23T09:36:01.541Z,102664.34
2018-12-23T09:39:06.725Z,102661.18
2018-12-23T09:42:11.106Z,102649.22
2018-12-23T09:45:14.602Z,102650.24
2018-12-23T09:48:18.055Z,102657.08
2018-12-23T09:51:21.583Z,102644.22
2018-12-23T09:54:25.158Z,102650.73
2018-12-23T09:57:28.644Z,102645.56
2018-12-23T10:00:32.132Z,102637.18
2018-12-23T10:03:35.848Z,102634.79
2018-12-23T10:06:40.402Z,102623.65
2018-12-23T10:09:43.813Z,102618.21
2018-12-23T10:12:47.285Z,102612.99
2018-12-23T10:15:51.005Z,102611.70
2018-12-23T10:18:55.586Z,102605.53
2018-12-23T10:21:59.022Z,102605.18
2018-12-23T10:25:02.461Z,102600.75
2018-12-23T10:28:05.982Z,102596.90
2018-12-23T10:31:09.532Z,102598.06
2018-12-23T10:34:13.058Z,102591.39
2018-12-23T10:37:16.583Z,102584.85
2018-12-23T10:40:20.145Z,102588.14
2018-12-23T10:43:23.640Z,102579.31
2018-12-23T10:46:27.138Z,102574.34
2018-12-23T10:49:30.686Z,102566.17
2018-12-23T10:52:34.149Z,102555.92
2018-12-23T10:55:37.631Z,102549.75
2018-12-23T10:58:41.148Z,102542.00
2018-12-23T11:01:44.673Z,102529.62
2018-12-23T11:04:48.067Z,102533.49
2018-12-23T11:07:51.565Z,102523.19
2018-12-23T11:10:55.075Z,102514.96
2018-12-23T11:13:58.496Z,102506.04
2018-12-23T11:17:01.958Z,102496.87
2018-12-23T11:20:06.701Z,102489.68
2018-12-23T11:23:10.196Z,102484.54
2018-12-23T11:26:13.701Z,102471.45
2018-12-23T11:29:17.114Z,102465.31
2018-12-23T11:32:20.600Z,102462.64
2018-12-23T11:35:23.996Z,102455.36
2018-12-23T11:38:35.289Z,102449.63
2018-12-23T11:41:30.888Z,102445.41
2018-12-23T11:44:34.361Z,102437.21
2018-12-23T11:47:37.990Z,102437.62
2018-12-23T11:50:41.652Z,102436.79
2018-12-23T11:53:45.112Z,102426.50
2018-12-23T11:56:48.514Z,102424.36
2018-12-23T11:59:52.092Z,102422.83
2018-12-23T12:02:55.752Z,102419.66
2018-12-23T12:05:59.178Z,102416.26
2018-12-23T12:09:06.892Z,102413.14
2018-12-23T12:12:06.540Z,102408.08
2018-12-23T12:15:09.930Z,102411.39
2018-12-23T12:18:13.447Z,102409.71
2018-12-23T12:21:17.016Z,102397.10
2018-12-23T12:24:20.470Z,102395.35
2018-12-23T12:27:24.154Z,102387.84
2018-12-23T12:30:27.955Z,102388.39
2018-12-23T12:33:31.600Z,102373.75
2018-12-23T12:36:35.070Z,102371.76
2018-12-23T12:39:39.580Z,102365.48
2018-12-23T12:42:43.223Z,102359.92
2018-12-23T12:45:46.704Z,102347.03
2018-12-23T12:48:50.294Z,102342.24
2018-12-23T12:51:53.927Z,102337.09
2018-12-23T12:54:57.441Z,102326.80
2018-12-23T12:58:01.013Z,102313.15
2018-12-23T13:01:04.547Z,102323.44
2018-12-23T13:04:08.053Z,102313.05
2018-12-23T13:07:11.611Z,102303.72
2018-12-23T13:10:20.198Z,102295.06
2018-12-23T13:13:36.286Z,102287.84
2018-12-23T13:16:39.830Z,102272.67
2018-12-23T13:19:43.381Z,102259.75
2018-12-23T13:22:46.917Z,102246.02
2018-12-23T13:25:50.503Z,102231.91
2018-12-23T13:28:53.992Z,102221.47
2018-12-23T13:31:57.601Z,102204.01
2018-12-23T13:35:02.306Z,102196.24
2018-12-23T13:38:05.850Z,102191.79
2018-12-23T13:41:23.867Z,102191.41
2018-12-23T13:44:39.327Z,102178.90
2018-12-23T13:48:08.927Z,102168.31
2018-12-23T13:51:42.447Z,102161.78
2018-12-23T13:54:57.386Z,102156.60
2018-12-23T13:59:11.729Z,102157.83
2018-12-23T14:02:31.989Z,102152.80
2018-12-23T14:05:51.238Z,102150.36
2018-12-23T14:10:09.626Z,102134.19
2018-12-23T14:13:13.346Z,102123.37
2018-12-23T14:16:16.919Z,102113.86
2018-12-23T14:19:20.511Z,102098.42
2018-12-23T14:22:24.076Z,102093.86
2018-12-23T14:25:27.735Z,102089.11
2018-12-23T14:28:31.216Z,102082.95
2018-12-23T14:31:34.776Z,102078.63
2018-12-23T14:34:41.968Z,102068.02
2018-12-23T14:37:49.759Z,102062.01
2018-12-23T14:40:59.638Z,102051.79
2018-12-23T14:44:07.148Z,102040.22
2018-12-23T14:47:13.928Z,102027.94
2018-12-23T14:50:20.635Z,102027.73
2018-12-23T14:53:28.401Z,102016.83
2018-12-23T14:56:35.269Z,102008.47
2018-12-23T14:59:42.645Z,102004.82
2018-12-23T15:02:49.938Z,102000.97
2018-12-23T15:05:58.761Z,101991.87
2018-12-23T15:09:08.674Z,101987.73
2018-12-23T15:12:18.535Z,101983.57
2018-12-23T15:15:23.356Z,101972.25
2018-12-23T15:18:26.809Z,101963.82
2018-12-23T15:21:30.396Z,101958.48
2018-12-23T15:24:33.912Z,101952.86
2018-12-23T15:27:37.515Z,101950.38
2018-12-23T15:30:41.119Z,101946.63
2018-12-23T15:33:44.615Z,101932.87
2018-12-23T15:36:48.129Z,101929.92
2018-12-23T15:39:51.626Z,101919.15
2018-12-23T15:42:55.240Z,101915.73
2018-12-23T15:45:58.843Z,101913.75
2018-12-23T15:49:02.418Z,101908.08
2018-12-23T15:52:05.846Z,101906.36
2018-12-23T15:55:09.443Z,101903.03
2018-12-23T15:58:12.825Z,101900.64
2018-12-23T16:01:16.358Z,101893.71
2018-12-23T16:04:20.145Z,101890.57
2018-12-23T16:07:23.670Z,101884.44
2018-12-23T16:10:27.325Z,101877.21
2018-12-23T16:13:30.770Z,101881.92
2018-12-23T16:16:34.259Z,101881.25
2018-12-23T16:19:38.255Z,101876.36
2018-12-23T16:22:41.778Z,101871.77
2018-12-23T16:25:45.192Z,101867.03
2018-12-23T16:28:48.913Z,101858.54
2018-12-23T16:31:52.483Z,101850.91
2018-12-23T16:34:56.010Z,101843.93
2018-12-23T16:37:59.493Z,101833.12
2018-12-23T16:41:03.002Z,101829.80
2018-12-23T16:44:06.471Z,101824.09
2018-12-23T16:47:09.928Z,101815.51
2018-12-23T16:50:13.498Z,101816.79
2018-12-23T16:53:17.065Z,101810.28
2018-12-23T16:56:20.509Z,101807.82
2018-12-23T16:59:23.986Z,101802.86
2018-12-23T17:02:27.660Z,101792.69
2018-12-23T17:05:31.251Z,101782.61
2018-12-23T17:08:34.917Z,101789.23
2018-12-23T17:11:38.390Z,101781.88
2018-12-23T17:14:41.912Z,101774.23
2018-12-23T17:17:45.400Z,101774.16
2018-12-23T17:20:48.971Z,101769.65
2018-12-23T17:23:52.521Z,101769.45
2018-12-23T17:26:55.916Z,101765.23
2018-12-23T17:29:59.468Z,101758.34
2018-12-23T17:33:02.933Z,101759.77
2018-12-23T17:36:06.435Z,101752.42
2018-12-23T17:39:09.885Z,101758.44
2018-12-23T17:42:13.345Z,101755.51
2018-12-23T17:45:16.750Z,101747.05
2018-12-23T17:48:20.186Z,101753.45
2018-12-23T17:51:23.726Z,101749.51
2018-12-23T17:54:27.236Z,101746.58
2018-12-23T17:57:30.662Z,101746.61
2018-12-23T18:00:34.205Z,101751.30
2018-12-23T18:03:37.762Z,101754.51
2018-12-23T18:06:41.273Z,101762.35
2018-12-23T18:09:44.768Z,101771.77
2018-12-23T18:12:48.257Z,101773.25
2018-12-23T18:15:51.840Z,101769.13
2018-12-23T18:18:55.182Z,101767.11
2018-12-23T18:21:58.658Z,101761.53
2018-12-23T18:25:02.320Z,101751.87
2018-12-23T18:28:07.455Z,101750.61
2018-12-23T18:31:11.880Z,101749.34
2018-12-23T18:34:16.363Z,101755.61
2018-12-23T18:37:19.786Z,101755.69
2018-12-23T18:40:23.173Z,101751.77
2018-12-23T18:43:26.563Z,101755.51
2018-12-23T18:46:30.072Z,101759.69
2018-12-23T18:49:33.555Z,101764.39
2018-12-23T18:52:37.141Z,101769.49
2018-12-23T18:55:40.583Z,101756.34
2018-12-23T18:58:44.459Z,101755.10
2018-12-23T19:01:56.429Z,101755.03
2018-12-23T19:04:59.924Z,101750.15
2018-12-23T19:08:08.219Z,101743.29
2018-12-23T19:11:23.973Z,101735.51
2018-12-23T19:14:37.516Z,101743.22
2018-12-23T19:18:21.135Z,101739.78
2018-12-23T19:21:37.403Z,101740.37
2018-12-23T19:24:57.100Z,101737.69
2018-12-23T19:30:29.000Z,101736.12
2018-12-23T19:33:54.230Z,101733.93
2018-12-23T19:37:07.656Z,101738.23
2018-12-23T19:43:00.016Z,101736.45
2018-12-23T19:46:19.324Z,101735.94
2018-12-23T19:49:35.102Z,101722.48
2018-12-23T19:52:50.496Z,101720.92
2018-12-23T19:56:08.979Z,101721.15
2018-12-23T20:00:39.219Z,101716.82
2018-12-23T20:03:57.321Z,101714.14
2018-12-23T20:09:15.238Z,101716.96
2018-12-23T20:12:44.732Z,101719.77
2018-12-23T20:16:00.991Z,101722.01
2018-12-23T20:19:15.844Z,101716.55
2018-12-23T20:22:44.700Z,101713.23
2018-12-23T20:25:57.804Z,101704.85
2018-12-23T20:31:24.700Z,101699.73
2018-12-23T20:36:52.190Z,101686.68
2018-12-23T20:42:13.921Z,101690.96
2018-12-23T20:46:28.304Z,101684.93
2018-12-23T20:50:11.315Z,101689.57
2018-12-23T20:55:31.308Z,101686.78
2018-12-23T20:58:46.172Z,101676.73
2018-12-23T21:02:00.659Z,101662.89
2018-12-23T21:05:14.913Z,101669.61
2018-12-23T21:08:34.083Z,101668.58
2018-12-23T21:12:57.315Z,101666.82
2018-12-23T21:16:23.690Z,101671.93
2018-12-23T21:20:28.681Z,101677.15
2018-12-23T21:27:55.526Z,101672.86
2018-12-23T21:32:08.862Z,101668.46
2018-12-23T21:35:27.200Z,101661.98
2018-12-23T21:38:44.632Z,101662.57
2018-12-23T21:42:03.203Z,101661.99
2018-12-23T21:45:17.885Z,101655.19
2018-12-23T21:48:32.831Z,101653.51
2018-12-23T21:52:08.481Z,101651.65
2018-12-23T21:55:25.867Z,101649.42
2018-12-23T21:58:41.234Z,101655.37
2018-12-23T22:01:56.098Z,101639.33
2018-12-23T22:05:40.887Z,101633.65
2018-12-23T22:08:57.043Z,101630.99
2018-12-23T22:14:10.036Z,101623.99
2018-12-23T22:17:13.645Z,101630.90
2018-12-23T22:20:17.600Z,101625.42
2018-12-23T22:23:21.389Z,101618.36
2018-12-23T22:26:25.096Z,101614.35
2018-12-23T22:29:28.652Z,101615.87
2018-12-23T22:32:32.305Z,101604.06
2018-12-23T22:35:35.844Z,101604.97
2018-12-23T22:38:39.347Z,101590.99
2018-12-23T22:41:42.753Z,101581.33
2018-12-23T22:44:46.347Z,101586.76
2018-12-23T22:47:49.756Z,101579.38
2018-12-23T22:50:53.239Z,101573.66
2018-12-23T22:53:56.785Z,101576.85
2018-12-23T22:57:00.253Z,101570.07
2018-12-23T23:00:03.774Z,101580.79
2018-12-23T23:03:09.222Z,101577.47
2018-12-23T23:06:10.705Z,101566.66
2018-12-23T23:09:14.346Z,101568.08
2018-12-23T23:12:17.816Z,101556.16
2018-12-23T23:15:21.275Z,101545.35
2018-12-23T23:18:24.792Z,101545.03
2018-12-23T23:21:28.171Z,101541.96
2018-12-23T23:24:31.677Z,101541.43
2018-12-23T23:27:35.061Z,101542.59
2018-12-23T23:30:38.683Z,101533.20
2018-12-23T23:33:42.127Z,101531.07
2018-12-23T23:36:45.574Z,101513.98
2018-12-23T23:39:49.081Z,101515.60
2018-12-23T23:42:52.489Z,101518.40
2018-12-23T23:45:57.014Z,101522.65
2018-12-23T23:49:00.580Z,101514.77
2018-12-23T23:52:04.042Z,101511.25
2018-12-23T23:55:07.498Z,101515.65
2018-12-23T23:58:11.050Z,101525.82
